createdAt,value
2023-11-03T00:01:56.459Z,94075.88
2023-11-03T00:06:59.597Z,94086.06
2023-11-03T00:12:03.356Z,94087.88
2023-11-03T00:17:08.188Z,94102.78
2023-11-03T00:22:11.795Z,94112.56
2023-11-03T00:27:15.620Z,94119.97
2023-11-03T00:32:20.212Z,94128.19
2023-11-03T00:37:23.385Z,94123.28
2023-11-03T00:42:26.782Z,94129.16
2023-11-03T00:47:31.683Z,94144.44
2023-11-03T00:52:34.799Z,94151.88
2023-11-03T00:57:39.300Z,94165.00
2023-11-03T01:02:45.000Z,94153.50
2023-11-03T01:07:48.344Z,94157.38
2023-11-03T01:12:52.303Z,94162.03
2023-11-03T01:17:57.354Z,94174.38
2023-11-03T01:23:00.578Z,94169.31
2023-11-03T01:28:03.886Z,94167.81
2023-11-03T01:33:08.474Z,94173.56
2023-11-03T01:38:11.770Z,94179.03
2023-11-03T01:43:14.935Z,94177.22
2023-11-03T01:48:19.528Z,94173.69
2023-11-03T01:53:22.972Z,94177.28
2023-11-03T01:58:26.133Z,94192.22
2023-11-03T02:03:30.708Z,94185.88
2023-11-03T02:08:33.776Z,94201.94
2023-11-03T02:13:37.198Z,94198.75
2023-11-03T02:18:41.749Z,94194.56
2023-11-03T02:23:46.307Z,94189.78
2023-11-03T02:28:50.577Z,94187.97
2023-11-03T02:33:54.272Z,94186.00
2023-11-03T02:38:58.819Z,94187.09
2023-11-03T02:44:01.914Z,94197.25
2023-11-03T02:49:05.275Z,94197.72
2023-11-03T02:54:09.847Z,94206.75
2023-11-03T02:59:13.787Z,94189.78
2023-11-03T03:04:17.106Z,94194.50
2023-11-03T03:09:21.728Z,94188.78
2023-11-03T03:14:24.788Z,94197.31
2023-11-03T03:19:27.945Z,94191.41
2023-11-03T03:24:32.442Z,94198.72
2023-11-03T03:29:35.480Z,94192.16
2023-11-03T03:34:38.599Z,94203.03
2023-11-03T03:39:43.149Z,94209.06
2023-11-03T03:44:46.238Z,94211.50
2023-11-03T03:49:49.428Z,94211.88
2023-11-03T03:54:53.985Z,94213.06
2023-11-03T03:59:57.269Z,94217.16
2023-11-03T04:05:00.521Z,94217.50
2023-11-03T04:10:06.620Z,94222.28
2023-11-03T04:15:10.400Z,94218.34
2023-11-03T04:20:13.614Z,94224.84
2023-11-03T04:25:18.161Z,94229.34
2023-11-03T04:30:21.916Z,94222.50
2023-11-03T04:35:25.009Z,94197.72
2023-11-03T04:40:29.524Z,94198.19
2023-11-03T04:45:32.594Z,94203.94
2023-11-03T04:50:35.710Z,94202.28
2023-11-03T04:55:40.176Z,94212.13
2023-11-03T05:00:43.392Z,94215.13
2023-11-03T05:05:46.518Z,94212.53
2023-11-03T05:10:51.041Z,94193.84
2023-11-03T05:15:54.157Z,94179.19
2023-11-03T05:20:57.360Z,94191.69
2023-11-03T05:26:01.801Z,94213.19
2023-11-03T05:31:05.706Z,94220.75
2023-11-03T05:36:12.347Z,94233.84
2023-11-03T05:41:17.031Z,94223.59
2023-11-03T05:46:20.231Z,94221.47
2023-11-03T05:51:23.336Z,94204.66
2023-11-03T05:56:27.965Z,94213.31
2023-11-03T06:01:34.236Z,94216.72
2023-11-03T06:06:37.376Z,94217.56
2023-11-03T06:11:41.932Z,94228.31
2023-11-03T06:16:45.090Z,94222.94
2023-11-03T06:21:48.235Z,94236.22
2023-11-03T06:26:52.949Z,94246.47
2023-11-03T06:31:56.299Z,94238.28
2023-11-03T06:36:59.979Z,94256.53
2023-11-03T06:42:07.149Z,94247.69
2023-11-03T06:47:10.310Z,94259.56
2023-11-03T06:52:13.650Z,94271.25
2023-11-03T06:57:18.514Z,94268.66
2023-11-03T07:02:21.737Z,94280.19
2023-11-03T07:07:24.943Z,94274.97
2023-11-03T07:12:29.432Z,94286.75
2023-11-03T07:17:32.522Z,94311.19
2023-11-03T07:22:35.654Z,94325.03
2023-11-03T07:27:40.326Z,94344.16
2023-11-03T07:32:46.228Z,94340.53
2023-11-03T07:37:49.512Z,94346.25
2023-11-03T07:42:54.015Z,94351.16
2023-11-03T07:47:57.758Z,94336.44
2023-11-03T07:53:01.220Z,94337.56
2023-11-03T07:58:06.963Z,94348.81
2023-11-03T08:03:10.277Z,94374.06
2023-11-03T08:08:15.225Z,94383.56
2023-11-03T08:13:20.431Z,94388.25
2023-11-03T08:18:24.550Z,94386.72
2023-11-03T08:23:27.751Z,94386.06
2023-11-03T08:28:33.903Z,94385.03
2023-11-03T08:33:37.060Z,94386.03
2023-11-03T08:38:40.223Z,94394.69
2023-11-03T08:43:46.608Z,94396.53
2023-11-03T08:48:49.771Z,94403.31
2023-11-03T08:53:52.965Z,94396.25
2023-11-03T08:58:58.225Z,94396.19
2023-11-03T09:04:03.086Z,94398.50
2023-11-03T09:09:07.428Z,94395.22
2023-11-03T09:14:12.227Z,94410.66
2023-11-03T09:19:15.454Z,94408.34
2023-11-03T09:24:18.913Z,94410.94
2023-11-03T09:29:24.155Z,94411.31
2023-11-03T09:34:30.393Z,94399.09
2023-11-03T09:39:36.771Z,94398.34
2023-11-03T09:44:42.054Z,94397.75
2023-11-03T09:49:45.406Z,94405.16
2023-11-03T09:54:49.239Z,94399.53
2023-11-03T09:59:54.236Z,94397.00
2023-11-03T10:04:57.491Z,94391.72
2023-11-03T10:10:01.474Z,94403.84
2023-11-03T10:15:07.289Z,94398.03
2023-11-03T10:20:13.150Z,94390.66
2023-11-03T10:25:16.493Z,94388.94
2023-11-03T10:30:21.352Z,94393.00
2023-11-03T10:35:24.565Z,94382.69
2023-11-03T10:40:27.715Z,94383.97
2023-11-03T10:45:33.855Z,94377.06
2023-11-03T10:50:38.689Z,94385.44
2023-11-03T10:55:50.717Z,94381.28
2023-11-03T11:01:05.405Z,94383.19
2023-11-03T11:06:15.463Z,94366.31
2023-11-03T11:11:19.452Z,94369.06
2023-11-03T11:16:23.981Z,94370.88
2023-11-03T11:21:31.552Z,94383.31
2023-11-03T11:26:36.191Z,94378.81
2023-11-03T11:31:41.758Z,94382.81
2023-11-03T11:36:47.746Z,94369.88
2023-11-03T11:41:52.787Z,94368.25
2023-11-03T11:46:58.948Z,94365.69
2023-11-03T11:52:02.754Z,94365.13
2023-11-03T11:57:06.874Z,94365.34
2023-11-03T12:02:11.758Z,94361.94
2023-11-03T12:07:14.910Z,94367.94
2023-11-03T12:12:18.050Z,94370.25
2023-11-03T12:17:22.653Z,94376.38
2023-11-03T12:22:27.426Z,94360.00
2023-11-03T12:27:30.596Z,94363.19
2023-11-03T12:32:36.132Z,94361.91
2023-11-03T12:37:44.021Z,94352.13
2023-11-03T12:42:47.253Z,94347.75
2023-11-03T12:47:52.129Z,94351.25
2023-11-03T12:53:04.513Z,94349.03
2023-11-03T12:58:11.773Z,94348.09
2023-11-03T13:03:17.883Z,94340.47
2023-11-03T13:08:21.573Z,94340.91
2023-11-03T13:13:24.774Z,94340.88
2023-11-03T13:18:29.389Z,94338.28
2023-11-03T13:23:33.198Z,94343.00
2023-11-03T13:28:36.350Z,94348.50
2023-11-03T13:33:41.491Z,94349.75
2023-11-03T13:38:44.933Z,94349.50
2023-11-03T13:43:48.590Z,94352.56
2023-11-03T13:48:53.146Z,94363.03
2023-11-03T13:53:57.601Z,94364.81
2023-11-03T13:59:01.362Z,94368.25
2023-11-03T14:04:07.170Z,94378.34
2023-11-03T14:09:11.655Z,94392.47
2023-11-03T14:14:16.198Z,94405.63
2023-11-03T14:19:20.903Z,94407.22
2023-11-03T14:24:25.204Z,94411.25
2023-11-03T14:29:29.439Z,94423.25
2023-11-03T14:34:34.017Z,94427.53
2023-11-03T14:39:37.361Z,94439.91
2023-11-03T14:44:40.556Z,94447.38
2023-11-03T14:49:45.233Z,94443.59
2023-11-03T14:54:48.817Z,94450.03
2023-11-03T14:59:52.486Z,94460.72
2023-11-03T15:04:57.059Z,94465.63
2023-11-03T15:10:01.917Z,94464.09
2023-11-03T15:15:06.564Z,94476.41
2023-11-03T15:20:14.963Z,94473.84
2023-11-03T15:25:18.778Z,94476.06
2023-11-03T15:30:22.487Z,94480.69
2023-11-03T15:35:28.440Z,94487.97
2023-11-03T15:40:32.509Z,94495.06
2023-11-03T15:45:35.642Z,94495.53
2023-11-03T15:50:40.134Z,94491.84
2023-11-03T15:55:46.129Z,94506.78
2023-11-03T16:00:51.075Z,94514.84
2023-11-03T16:05:55.712Z,94512.31
2023-11-03T16:10:58.968Z,94519.19
2023-11-03T16:16:02.128Z,94521.66
2023-11-03T16:21:06.935Z,94524.66
2023-11-03T16:26:10.153Z,94544.44
2023-11-03T16:31:13.603Z,94549.41
2023-11-03T16:36:20.680Z,94560.50
2023-11-03T16:41:24.520Z,94576.47
2023-11-03T16:46:27.791Z,94579.78
2023-11-03T16:51:32.951Z,94587.88
2023-11-03T16:56:36.090Z,94595.03
2023-11-03T17:01:39.902Z,94592.56
2023-11-03T17:06:44.941Z,94591.47
2023-11-03T17:11:48.836Z,94598.28
2023-11-03T17:16:51.932Z,94610.19
2023-11-03T17:21:56.628Z,94617.53
2023-11-03T17:26:59.742Z,94620.50
2023-11-03T17:32:02.895Z,94628.72
2023-11-03T17:37:07.493Z,94635.59
2023-11-03T17:42:10.653Z,94650.78
2023-11-03T17:47:14.815Z,94646.94
2023-11-03T17:52:19.340Z,94645.47
2023-11-03T17:57:22.799Z,94664.19
2023-11-03T18:02:25.850Z,94670.84
2023-11-03T18:07:30.341Z,94673.38
2023-11-03T18:12:33.476Z,94674.34
2023-11-03T18:17:36.645Z,94668.91
2023-11-03T18:22:41.536Z,94667.34
2023-11-03T18:27:44.812Z,94665.84
2023-11-03T18:32:48.683Z,94669.28
2023-11-03T18:37:53.310Z,94671.97
2023-11-03T18:42:56.728Z,94667.47
2023-11-03T18:48:02.050Z,94666.00
2023-11-03T18:55:12.016Z,94676.53
2023-11-03T19:00:11.248Z,94669.28
2023-11-03T19:04:46.206Z,94671.41
2023-11-03T19:09:18.791Z,94678.44
2023-11-03T19:14:22.697Z,94682.31
2023-11-03T19:19:26.834Z,94684.47
2023-11-03T19:24:31.352Z,94692.75
2023-11-03T19:29:37.430Z,94699.88
2023-11-03T19:34:44.486Z,94688.91
2023-11-03T19:39:49.092Z,94700.00
2023-11-03T19:44:52.241Z,94716.00
2023-11-03T19:49:55.322Z,94717.34
2023-11-03T19:54:59.921Z,94718.16
2023-11-03T20:00:03.504Z,94729.13
2023-11-03T20:05:07.830Z,94727.56
2023-11-03T20:10:13.152Z,94735.28
2023-11-03T20:15:16.786Z,94736.94
2023-11-03T20:20:20.173Z,94724.00
2023-11-03T20:25:24.658Z,94718.59
2023-11-03T20:30:27.967Z,94716.44
2023-11-03T20:35:31.058Z,94725.19
2023-11-03T20:40:35.727Z,94718.16
2023-11-03T20:45:39.402Z,94718.03
2023-11-03T20:50:42.632Z,94735.81
2023-11-03T20:55:47.319Z,94749.78
2023-11-03T21:00:50.595Z,94742.19
2023-11-03T21:05:59.385Z,94760.78
2023-11-03T21:11:05.689Z,94756.13
2023-11-03T21:16:13.404Z,94765.84
2023-11-03T21:21:17.471Z,94760.44
2023-11-03T21:26:22.653Z,94764.63
2023-11-03T21:31:26.723Z,94773.00
2023-11-03T21:36:29.894Z,94776.91
2023-11-03T21:41:34.815Z,94776.69
2023-11-03T21:46:37.967Z,94779.66
2023-11-03T21:51:42.480Z,94782.97
2023-11-03T21:56:47.175Z,94793.84
2023-11-03T22:01:50.704Z,94793.19
2023-11-03T22:06:53.875Z,94795.78
2023-11-03T22:11:58.364Z,94807.16
2023-11-03T22:17:01.471Z,94812.22
2023-11-03T22:22:04.936Z,94802.84
2023-11-03T22:27:10.696Z,94802.72
2023-11-03T22:32:15.421Z,94805.75
2023-11-03T22:37:18.529Z,94813.84
2023-11-03T22:42:23.041Z,94817.66
2023-11-03T22:47:26.194Z,94821.22
2023-11-03T22:52:29.329Z,94831.25
2023-11-03T22:57:33.850Z,94839.84
2023-11-03T23:02:37.006Z,94840.44
2023-11-03T23:07:40.121Z,94840.75
2023-11-03T23:12:44.665Z,94847.16
2023-11-03T23:17:48.091Z,94848.25
2023-11-03T23:22:51.279Z,94850.03
2023-11-03T23:27:55.811Z,94847.16
2023-11-03T23:33:00.223Z,94857.47
2023-11-03T23:38:03.371Z,94851.84
2023-11-03T23:43:08.351Z,94861.00
2023-11-03T23:48:11.572Z,94856.13
2023-11-03T23:53:15.613Z,94855.00
2023-11-03T23:58:21.034Z,94847.28
